Devalls Bluff, Arkansas
Current Conditions -  °F | °C
As of 10:55 AM on Saturday 22 Nov 2014 (Local Time) from KSGT Reporting Station
Overcast Overcast  
Wind Chill: 14°   Ceiling: 3500
Heat Index: 14°   Visibility: 10mi
Dew Point: 10°   Wind: 8mph
Humidity: 77%   Direction: 150°SSE
Pressure: 30.19"   Gusts: NA
Location:  34.7129°N, 91.5513°W
Report Text: KSGT 221655Z AUTO 15007KT 10SM OVC035 14/10 A3019 RMK AO1
Loading
Personal Weather Stations






























Interactive Weather Map New forecast layout! Learn more

10-Day Weather Forecast

Advertisements
Track Severe Weather on mobile